Etusivu
METAR-TAF:

METAR-TAF

Lentoasemat :

Madeiran lentoasema

Funchal, Madeira, Portugali

Leveyspiiri: 32-41-52N, Pituuspiiri: 016-46-28W, korkeus merenpinnasta: 59 m

Tämänhetkinen sää

Tämä raportti tehtiin 17 minuuttia sitten, kello 19.00 UTC
Tuuli 16 kn pohjoisesta/koillisesta
Lämpötila 23°C
Kosteus 69%
Ilmanpaine 1020 hPa
Näkyvyys 10 km tai enemmän
Hajanaisia pilviä 1300 ft:n korkeudessa

METAR: LPMA 171900Z 03016KT 9999 SCT013 23/17 Q1020

Aika: 20:17 (19:17 UTC)

Sääennuste

Tämä raportti tehtiin 2 tuntia ja 17 minuuttia sitten, kello 17.00 UTC
Ennuste voimassa 17. päivästä klo 18 UTC - 18. päivään klo 18 UTC
Tuuli 13 kn pohjoisesta/koillisesta
Näkyvyys 10 km tai enemmän
Hajanaisia pilviä 1500 ft:n korkeudessa
Ajoittain
17. päivästä klo 18 UTC - 18. päivään klo 18 UTC
Tuuli 18 kn pohjoisesta/koillisesta puuskistuen 30 kn:hen
Hajonneita pilviä 1500 ft:n korkeudessa

TAF: LPMA 171700Z 1718/1818 02013KT 9999 SCT015 TEMPO 1718/1818 02018G30KT BKN015

Säähavainnot ja -ennusteet yli 4000 lentoasemalta (METAR- ja TAF-raportit).

Käytössä olevat sääasemat on merkitty karttaan keltaisilla ja punaisilla pisteillä.

Aseta hiiri pisteen päälle nähdäksesi sääaseman nimen.

Klikkaa sitten nähdäksesi säähavainnot ja -ennusteet.

Kartan vaihtaminen: klikkaa mustalla rastilla varustettuja vihreitä pisteitä, niin voit zoomata sisään; viivalla varustettua vihreää pistettä, niin voit zoomata ulos tai vihreitä nuolia, niin pääset viereisille kartoille.


METAR-TAF: